Time;durP1;ratioP1;P1;durP2;ratioP2;P2;SDS_P1;SDS_P2;PMS_P1;PMS_P2;Temp;Humidity;BMP_temperature;BMP_pressure;BME280_temperature;BME280_humidity;BME280_pressure;Samples;Min_cycle;Max_cycle;Signal;HPM_P1;HPM_P2
2022/03/04 00:00:28;;;;;;;65.97;29.58;;;-0.40;99.90;;;;;;5040420;28;20520;-73
2022/03/04 00:02:55;;;;;;;61.72;28.95;;;-0.40;99.90;;;;;;5058081;28;20272;-73
2022/03/04 00:05:22;;;;;;;64.63;29.15;;;-0.40;99.90;;;;;;5059512;28;20261;-73
2022/03/04 00:07:49;;;;;;;58.40;27.15;;;-0.40;99.90;;;;;;5078737;28;20044;-73
2022/03/04 00:10:15;;;;;;;65.82;29.63;;;-0.40;99.90;;;;;;5060219;28;20135;-73
2022/03/04 00:12:42;;;;;;;71.05;30.13;;;-0.40;99.90;;;;;;5077735;28;20049;-73
2022/03/04 00:15:10;;;;;;;66.97;29.90;;;-0.40;99.90;;;;;;5058980;28;20066;-73
2022/03/04 00:17:36;;;;;;;69.22;30.35;;;-0.40;99.90;;;;;;5057869;28;20066;-73
2022/03/04 00:20:04;;;;;;;69.05;31.42;;;-0.40;99.90;;;;;;5023579;28;20391;-73
2022/03/04 00:22:30;;;;;;;72.13;31.80;;;-0.50;99.90;;;;;;5059502;28;20783;-73
2022/03/04 00:24:57;;;;;;;64.00;31.23;;;-0.50;99.90;;;;;;5057922;28;20143;-73
2022/03/04 00:27:24;;;;;;;67.85;30.90;;;-0.40;99.90;;;;;;5058865;28;20589;-73
2022/03/04 00:29:51;;;;;;;72.13;31.00;;;-0.50;99.90;;;;;;5041326;28;20046;-73
2022/03/04 00:32:17;;;;;;;65.45;30.55;;;-0.50;99.90;;;;;;5057170;28;20102;-73
2022/03/04 00:34:44;;;;;;;69.53;30.98;;;-0.40;99.90;;;;;;5058813;28;20503;-73
2022/03/04 00:37:11;;;;;;;69.95;32.00;;;-0.50;99.90;;;;;;5058597;28;20118;-73
2022/03/04 00:39:38;;;;;;;76.10;32.35;;;-0.40;99.90;;;;;;5057018;28;20455;-73
2022/03/04 00:42:05;;;;;;;75.72;33.40;;;-0.50;99.90;;;;;;5055684;28;20040;-73
2022/03/04 00:44:31;;;;;;;71.47;32.25;;;-0.60;99.90;;;;;;5058953;28;20539;-73
2022/03/04 00:46:58;;;;;;;65.85;30.67;;;-0.60;99.90;;;;;;5040638;28;20109;-73
2022/03/04 00:49:25;;;;;;;64.65;30.67;;;-0.80;99.90;;;;;;5059809;28;20166;-73
2022/03/04 00:51:52;;;;;;;71.07;31.70;;;-0.70;99.90;;;;;;5075244;28;20080;-73
2022/03/04 00:54:19;;;;;;;66.20;29.80;;;-0.70;99.90;;;;;;5078966;28;20592;-73
2022/03/04 00:56:46;;;;;;;72.40;32.47;;;-0.60;99.90;;;;;;5069389;28;20044;-73
2022/03/04 00:59:14;;;;;;;73.70;32.53;;;-0.40;99.90;;;;;;5057514;28;20096;-73
2022/03/04 01:01:41;;;;;;;70.40;31.80;;;-0.30;99.90;;;;;;5057726;28;20074;-73
2022/03/04 01:04:08;;;;;;;69.63;31.52;;;-0.30;99.90;;;;;;5051425;23;20148;-73
2022/03/04 01:06:35;;;;;;;62.63;30.38;;;-0.30;99.90;;;;;;4996494;28;20037;-72
2022/03/04 01:09:03;;;;;;;62.88;30.35;;;-0.20;99.90;;;;;;4990501;28;20072;-73
2022/03/04 01:11:31;;;;;;;78.38;31.73;;;-0.20;99.90;;;;;;5001150;28;20045;-72
2022/03/04 01:13:58;;;;;;;65.72;30.95;;;-0.10;99.90;;;;;;5011748;28;20055;-75
2022/03/04 01:16:25;;;;;;;68.70;31.67;;;-0.20;99.90;;;;;;4993647;28;20419;-71
2022/03/04 01:18:52;;;;;;;67.72;30.88;;;-0.20;99.90;;;;;;5008419;28;20064;-72
2022/03/04 01:21:19;;;;;;;64.07;31.35;;;-0.30;99.90;;;;;;5019649;28;20110;-72
2022/03/04 01:23:46;;;;;;;71.55;33.08;;;-0.30;99.90;;;;;;5050536;28;20056;-71
2022/03/04 01:26:12;;;;;;;75.60;31.90;;;-0.30;99.90;;;;;;5028625;28;20198;-72
2022/03/04 01:28:39;;;;;;;68.90;31.35;;;-0.30;99.90;;;;;;5028068;28;20037;-72
2022/03/04 01:31:09;;;;;;;67.90;32.65;;;-0.40;99.90;;;;;;5025243;28;20140;-72
2022/03/04 01:33:36;;;;;;;65.68;31.30;;;-0.40;99.90;;;;;;5013533;28;20137;-74
2022/03/04 01:36:03;;;;;;;69.22;30.88;;;-0.50;99.90;;;;;;5015493;28;20049;-72
2022/03/04 01:38:30;;;;;;;74.07;32.33;;;-0.60;99.90;;;;;;5015437;28;20069;-73
2022/03/04 01:40:58;;;;;;;73.65;32.30;;;-0.60;99.90;;;;;;5013925;28;20131;-74
2022/03/04 01:43:25;;;;;;;74.65;34.75;;;-0.60;99.90;;;;;;5033396;28;20551;-73
2022/03/04 01:45:52;;;;;;;80.07;33.75;;;-0.70;99.90;;;;;;5014001;28;20048;-75
2022/03/04 01:48:20;;;;;;;81.63;34.35;;;-0.70;99.90;;;;;;5013158;28;20057;-76
2022/03/04 01:50:49;;;;;;;79.45;31.80;;;-0.80;99.90;;;;;;5023563;28;20057;-76
2022/03/04 01:53:18;;;;;;;69.07;32.78;;;-0.90;99.90;;;;;;4997000;28;20057;-76
2022/03/04 01:55:45;;;;;;;80.60;32.95;;;-0.90;99.90;;;;;;5017391;28;20067;-76
2022/03/04 01:58:12;;;;;;;79.03;34.67;;;-0.90;99.90;;;;;;5029862;28;20045;-76
2022/03/04 02:00:39;;;;;;;70.68;33.10;;;-0.90;99.90;;;;;;5028898;28;20060;-76
2022/03/04 02:03:11;;;;;;;84.45;35.00;;;-1.10;99.90;;;;;;5029287;28;20216;-76
2022/03/04 02:05:38;;;;;;;84.43;35.70;;;-1.00;99.90;;;;;;5015084;28;20038;-76
2022/03/04 02:08:06;;;;;;;85.07;34.92;;;-1.10;99.90;;;;;;5013624;28;20575;-76
2022/03/04 02:10:32;;;;;;;89.60;36.78;;;-1.10;99.90;;;;;;5014229;28;20574;-77
2022/03/04 02:12:59;;;;;;;85.05;36.42;;;-1.20;99.90;;;;;;5015416;28;20416;-76
2022/03/04 02:15:26;;;;;;;85.40;35.97;;;-1.20;99.90;;;;;;5028790;28;20111;-77
2022/03/04 02:17:53;;;;;;;82.22;33.50;;;-1.20;99.90;;;;;;5014580;28;20126;-76
2022/03/04 02:20:23;;;;;;;84.40;35.80;;;-1.20;99.90;;;;;;5013808;28;20041;-76
2022/03/04 02:22:51;;;;;;;92.18;35.85;;;-1.30;99.90;;;;;;5013015;28;20283;-75
2022/03/04 02:25:17;;;;;;;82.95;36.28;;;-1.30;99.90;;;;;;5029857;28;20514;-76
2022/03/04 02:27:44;;;;;;;92.75;39.50;;;-1.20;99.90;;;;;;5012645;28;20107;-75
2022/03/04 02:30:11;;;;;;;91.90;37.92;;;-1.30;99.90;;;;;;5010634;28;20462;-76
2022/03/04 02:32:38;;;;;;;83.25;34.85;;;-1.40;99.90;;;;;;5028097;28;20045;-74
2022/03/04 02:35:05;;;;;;;91.22;36.88;;;-1.50;99.90;;;;;;5012997;28;20214;-75
2022/03/04 02:37:32;;;;;;;94.80;39.03;;;-1.50;99.90;;;;;;5027175;28;20045;-76
2022/03/04 02:39:59;;;;;;;90.28;38.10;;;-1.50;99.90;;;;;;5027569;28;20103;-75
2022/03/04 02:42:26;;;;;;;91.63;37.47;;;-1.40;99.90;;;;;;5008905;28;20069;-77
2022/03/04 02:44:52;;;;;;;88.72;38.17;;;-1.40;99.90;;;;;;4993897;28;20050;-77
2022/03/04 02:47:19;;;;;;;86.10;37.63;;;-1.50;99.90;;;;;;4997245;28;20301;-77
2022/03/04 02:49:49;;;;;;;91.57;37.45;;;-1.40;99.90;;;;;;5035768;28;20049;-77
2022/03/04 02:52:16;;;;;;;89.07;36.35;;;-1.40;99.90;;;;;;5015199;28;20135;-77
2022/03/04 02:54:43;;;;;;;92.18;36.67;;;-1.30;99.90;;;;;;5029138;28;20038;-77
2022/03/04 02:57:09;;;;;;;87.43;35.67;;;-1.20;99.90;;;;;;5008969;28;20106;-77
2022/03/04 02:59:36;;;;;;;87.05;36.08;;;-1.10;99.90;;;;;;5011823;28;20561;-77
2022/03/04 03:02:03;;;;;;;93.35;35.97;;;-1.30;99.90;;;;;;5008758;28;20042;-75
2022/03/04 03:04:30;;;;;;;102.80;40.55;;;-1.30;99.90;;;;;;5013490;28;20088;-75
2022/03/04 03:06:57;;;;;;;92.50;36.75;;;-1.30;99.90;;;;;;5012670;28;20033;-75
2022/03/04 03:09:24;;;;;;;93.10;38.25;;;-1.50;99.90;;;;;;5009925;28;20042;-75
2022/03/04 03:11:51;;;;;;;84.47;35.88;;;-1.60;99.90;;;;;;5017624;28;20065;-74
2022/03/04 03:14:18;;;;;;;90.40;37.47;;;-1.60;99.90;;;;;;5028465;28;20386;-75
2022/03/04 03:16:45;;;;;;;93.25;36.63;;;-1.70;99.90;;;;;;5009776;28;20042;-75
2022/03/04 03:19:12;;;;;;;89.72;36.67;;;-1.50;99.90;;;;;;5012214;28;20495;-75
2022/03/04 03:21:38;;;;;;;90.75;37.53;;;-1.70;99.90;;;;;;5009763;28;20458;-75
2022/03/04 03:24:06;;;;;;;84.97;37.28;;;-1.70;99.90;;;;;;5011046;28;20503;-74
2022/03/04 03:26:33;;;;;;;82.47;34.97;;;-1.60;99.90;;;;;;5026332;28;20053;-78
2022/03/04 03:28:59;;;;;;;89.43;36.65;;;-1.60;99.90;;;;;;5009391;28;20030;-77
2022/03/04 03:31:26;;;;;;;86.93;33.67;;;-1.60;99.90;;;;;;5009431;28;20053;-77
2022/03/04 03:33:53;;;;;;;78.57;33.95;;;-1.60;99.90;;;;;;5011296;28;20607;-77
2022/03/04 03:36:21;;;;;;;81.35;35.78;;;-1.50;99.90;;;;;;5007884;28;20126;-78
2022/03/04 03:38:48;;;;;;;89.35;35.03;;;-1.50;99.90;;;;;;5010165;28;20107;-77
2022/03/04 03:41:15;;;;;;;87.20;37.17;;;-1.60;99.90;;;;;;5007243;28;20103;-76
2022/03/04 03:43:42;;;;;;;88.85;36.13;;;-1.70;99.90;;;;;;5010928;28;20118;-76
2022/03/04 03:46:09;;;;;;;89.35;33.95;;;-1.70;99.90;;;;;;5010500;28;20059;-77
2022/03/04 03:48:40;;;;;;;91.85;34.45;;;-1.70;99.90;;;;;;5026137;28;20056;-76
2022/03/04 03:51:08;;;;;;;88.47;32.45;;;-1.80;99.90;;;;;;5008816;28;20053;-76
2022/03/04 03:53:34;;;;;;;86.20;36.00;;;-1.90;99.90;;;;;;5011113;28;20354;-77
2022/03/04 03:56:01;;;;;;;102.22;37.95;;;-1.90;99.90;;;;;;5008611;28;20353;-75
2022/03/04 03:58:28;;;;;;;85.47;33.13;;;-2.00;99.90;;;;;;5008048;28;20060;-77
2022/03/04 04:00:56;;;;;;;100.13;35.85;;;-2.00;99.90;;;;;;5011786;28;20037;-77
2022/03/04 04:03:23;;;;;;;101.53;36.58;;;-2.00;99.90;;;;;;5010374;28;20329;-76
2022/03/04 04:05:49;;;;;;;105.03;36.95;;;-2.00;99.90;;;;;;5008538;28;20041;-76
2022/03/04 04:08:16;;;;;;;98.78;36.95;;;-2.00;99.90;;;;;;5009396;28;20506;-77
2022/03/04 04:10:43;;;;;;;100.78;36.67;;;-2.00;99.90;;;;;;5007294;28;20285;-76
2022/03/04 04:13:10;;;;;;;98.03;38.63;;;-2.10;99.90;;;;;;5006773;28;20045;-77
2022/03/04 04:15:36;;;;;;;103.28;36.88;;;-2.10;99.90;;;;;;5006564;28;20372;-76
2022/03/04 04:18:04;;;;;;;107.15;40.63;;;-2.20;99.90;;;;;;5008928;28;20541;-78
2022/03/04 04:20:30;;;;;;;163.90;43.95;;;-2.20;99.90;;;;;;5006229;28;20049;-77
2022/03/04 04:22:57;;;;;;;83.95;30.50;;;-2.20;99.90;;;;;;5024960;28;20053;-77
2022/03/04 04:25:24;;;;;;;84.35;30.80;;;-2.20;99.90;;;;;;5011002;28;20095;-77
2022/03/04 04:27:51;;;;;;;113.28;40.75;;;-2.20;99.90;;;;;;5023234;28;20234;-77
2022/03/04 04:30:18;;;;;;;93.85;33.53;;;-2.20;99.90;;;;;;5008415;28;20045;-76
2022/03/04 04:32:44;;;;;;;107.65;39.35;;;-2.30;99.90;;;;;;5022220;28;20049;-77
2022/03/04 04:35:11;;;;;;;116.78;42.38;;;-2.20;99.90;;;;;;5024075;28;20071;-77
2022/03/04 04:37:38;;;;;;;65.55;24.35;;;-2.10;99.90;;;;;;5009619;28;20076;-76
2022/03/04 04:40:06;;;;;;;104.90;38.92;;;-2.20;99.90;;;;;;5006499;28;20045;-77
2022/03/04 04:42:33;;;;;;;99.55;33.38;;;-2.30;99.90;;;;;;5007001;28;20048;-77
2022/03/04 04:45:00;;;;;;;115.32;41.45;;;-2.30;99.90;;;;;;5008596;28;20079;-77
2022/03/04 04:47:27;;;;;;;119.57;43.25;;;-2.30;99.90;;;;;;5004929;28;20045;-78
2022/03/04 04:49:54;;;;;;;94.03;32.42;;;-2.30;99.90;;;;;;5009149;28;20326;-77
2022/03/04 04:52:21;;;;;;;123.85;42.08;;;-2.20;99.90;;;;;;5022750;28;20041;-76
2022/03/04 04:54:48;;;;;;;121.18;41.95;;;-2.30;99.90;;;;;;5009522;28;20507;-77
2022/03/04 04:57:15;;;;;;;103.93;37.65;;;-2.20;99.90;;;;;;5006416;28;20603;-77
2022/03/04 04:59:42;;;;;;;114.28;41.20;;;-2.20;99.90;;;;;;5008384;28;20292;-77
2022/03/04 05:02:09;;;;;;;123.85;41.88;;;-2.30;99.90;;;;;;5004115;28;20624;-75
2022/03/04 05:04:36;;;;;;;119.20;39.17;;;-2.30;99.90;;;;;;5008417;28;20352;-77
2022/03/04 05:07:03;;;;;;;125.70;41.63;;;-2.40;99.90;;;;;;5011227;28;20065;-77
2022/03/04 05:09:30;;;;;;;125.95;42.40;;;-2.50;99.90;;;;;;5019312;28;20542;-76
2022/03/04 05:11:57;;;;;;;110.72;38.50;;;-2.50;99.90;;;;;;5004753;28;20306;-78
2022/03/04 05:14:23;;;;;;;107.93;37.50;;;-2.50;99.90;;;;;;5005143;28;20460;-76
2022/03/04 05:16:50;;;;;;;97.75;34.28;;;-2.50;99.90;;;;;;5007329;28;20087;-77
2022/03/04 05:19:17;;;;;;;95.75;32.88;;;-2.50;99.90;;;;;;5023551;28;20064;-78
2022/03/04 05:21:44;;;;;;;93.32;35.15;;;-2.50;99.90;;;;;;5006459;28;20410;-76
2022/03/04 05:24:11;;;;;;;88.85;33.60;;;-2.60;99.90;;;;;;5001567;28;20049;-78
2022/03/04 05:26:41;;;;;;;77.15;29.63;;;-2.60;99.90;;;;;;5022013;28;20056;-77
2022/03/04 05:29:10;;;;;;;129.52;41.78;;;-2.60;99.90;;;;;;5005990;28;20107;-79
2022/03/04 05:31:39;;;;;;;113.47;36.58;;;-2.70;99.90;;;;;;5006098;28;20046;-77
2022/03/04 05:34:07;;;;;;;68.63;26.90;;;-2.60;99.90;;;;;;5007824;28;20266;-78
2022/03/04 05:36:34;;;;;;;117.45;40.45;;;-2.60;99.90;;;;;;5006097;28;20056;-76
2022/03/04 05:39:02;;;;;;;145.60;42.55;;;-2.60;99.90;;;;;;5023314;28;20053;-80
2022/03/04 05:41:28;;;;;;;123.30;40.80;;;-2.60;99.90;;;;;;5003926;28;20049;-77
2022/03/04 05:43:56;;;;;;;87.10;31.30;;;-2.50;99.90;;;;;;5004839;28;20046;-77
2022/03/04 05:46:23;;;;;;;107.32;37.25;;;-2.50;99.90;;;;;;5006094;28;20080;-78
2022/03/04 05:48:50;;;;;;;100.80;34.50;;;-2.40;99.90;;;;;;5023081;28;20045;-76
2022/03/04 05:51:17;;;;;;;116.65;37.78;;;-2.50;99.90;;;;;;5008170;28;20045;-78
2022/03/04 05:53:44;;;;;;;97.65;32.15;;;-2.50;99.90;;;;;;5004425;28;20194;-76
2022/03/04 05:56:11;;;;;;;113.95;37.88;;;-2.60;99.90;;;;;;5005441;28;20261;-77
2022/03/04 05:58:38;;;;;;;84.18;29.05;;;-2.70;99.90;;;;;;5023973;28;20150;-76
2022/03/04 06:01:08;;;;;;;120.43;40.08;;;-2.60;99.90;;;;;;5006670;28;20049;-77
2022/03/04 06:03:36;;;;;;;112.15;39.35;;;-2.60;99.90;;;;;;5006684;28;20363;-76
2022/03/04 06:06:04;;;;;;;110.53;37.10;;;-2.60;99.90;;;;;;5008001;28;20049;-77
2022/03/04 06:08:31;;;;;;;119.80;40.35;;;-2.50;99.90;;;;;;5010250;28;20041;-80
2022/03/04 06:10:59;;;;;;;126.43;41.38;;;-2.50;99.90;;;;;;5011901;28;20056;-75
2022/03/04 06:13:26;;;;;;;129.18;38.80;;;-2.50;99.90;;;;;;5013130;28;20041;-75
2022/03/04 06:15:53;;;;;;;110.75;38.03;;;-2.40;99.90;;;;;;5011849;28;20042;-75
2022/03/04 06:18:19;;;;;;;121.32;44.20;;;-2.40;99.90;;;;;;5004105;28;20064;-76
2022/03/04 06:20:46;;;;;;;127.35;43.20;;;-2.40;99.90;;;;;;5023395;28;20692;-77
2022/03/04 06:23:13;;;;;;;120.80;37.47;;;-2.40;99.90;;;;;;4989416;28;20302;-77
2022/03/04 06:25:40;;;;;;;119.30;38.97;;;-2.40;99.90;;;;;;5025919;28;20076;-77
2022/03/04 06:28:07;;;;;;;107.00;36.08;;;-2.40;99.90;;;;;;5012462;28;20115;-75
2022/03/04 06:30:38;;;;;;;72.22;26.27;;;-2.40;99.90;;;;;;5027918;28;20159;-77
2022/03/04 06:35:53;;;;;;;89.60;32.22;;;-2.50;99.90;;;;;;5010518;28;20295;-76
2022/03/04 06:38:21;;;;;;;83.35;30.92;;;-2.40;99.90;;;;;;5013505;28;20045;-75
2022/03/04 06:40:49;;;;;;;106.55;36.78;;;-2.50;99.90;;;;;;5026454;28;20662;-75
2022/03/04 06:43:16;;;;;;;113.28;37.38;;;-2.60;99.90;;;;;;5026538;28;20557;-75
2022/03/04 06:45:45;;;;;;;108.72;38.85;;;-2.50;99.90;;;;;;5009832;28;20053;-74
2022/03/04 06:48:13;;;;;;;104.38;35.42;;;-2.30;99.90;;;;;;5011982;28;20038;-74
2022/03/04 06:50:41;;;;;;;78.85;30.70;;;-2.30;99.90;;;;;;5009400;28;20259;-75
2022/03/04 06:53:07;;;;;;;103.07;32.45;;;-2.40;99.90;;;;;;5006530;28;20371;-75
2022/03/04 06:55:35;;;;;;;104.57;36.08;;;-2.40;99.90;;;;;;5026186;28;20080;-74
2022/03/04 06:58:02;;;;;;;95.88;32.22;;;-2.40;99.90;;;;;;5005133;28;20065;-76
2022/03/04 07:00:29;;;;;;;84.03;31.15;;;-2.40;99.90;;;;;;4990053;28;20322;-77
2022/03/04 07:02:57;;;;;;;87.65;30.45;;;-2.50;99.90;;;;;;5039154;23;20028;-76
2022/03/04 07:05:25;;;;;;;64.40;25.88;;;-2.60;99.90;;;;;;5011819;28;20111;-74
2022/03/04 07:07:54;;;;;;;95.20;34.00;;;-2.60;99.90;;;;;;5020396;28;20044;-75
2022/03/04 07:10:21;;;;;;;101.28;32.20;;;-2.50;99.90;;;;;;5019416;28;20053;-76
2022/03/04 07:12:48;;;;;;;97.15;35.55;;;-2.60;99.90;;;;;;5015510;28;20306;-76
2022/03/04 07:15:15;;;;;;;99.50;35.13;;;-2.60;99.90;;;;;;5020590;28;20103;-77
2022/03/04 07:17:45;;;;;;;91.32;31.13;;;-2.60;99.90;;;;;;5019864;28;20177;-76
2022/03/04 07:20:13;;;;;;;93.78;34.70;;;-2.60;99.90;;;;;;5018364;28;20041;-76
2022/03/04 07:22:40;;;;;;;93.68;35.85;;;-2.50;99.90;;;;;;5002078;28;20049;-77
2022/03/04 07:25:09;;;;;;;86.80;29.98;;;-2.40;99.90;;;;;;5019244;28;20151;-76
2022/03/04 07:27:36;;;;;;;79.57;29.08;;;-2.40;99.90;;;;;;5019457;28;20057;-76
2022/03/04 07:30:07;;;;;;;104.85;33.08;;;-2.40;99.90;;;;;;5018169;28;20049;-75
2022/03/04 07:32:34;;;;;;;114.28;35.85;;;-2.50;99.90;;;;;;5018382;28;20050;-76
2022/03/04 07:35:01;;;;;;;103.15;36.30;;;-2.40;99.90;;;;;;5020446;28;20073;-76
2022/03/04 07:37:27;;;;;;;98.63;32.83;;;-2.30;99.90;;;;;;5000507;28;20356;-75
2022/03/04 07:39:54;;;;;;;101.75;35.40;;;-2.30;99.90;;;;;;5001856;28;20050;-75
2022/03/04 07:42:22;;;;;;;110.30;37.60;;;-2.30;99.90;;;;;;5019811;28;20046;-75
2022/03/04 07:44:49;;;;;;;92.45;34.72;;;-2.20;99.90;;;;;;4986598;28;20049;-75
2022/03/04 07:47:16;;;;;;;96.15;34.17;;;-2.10;99.90;;;;;;5020777;28;20298;-75
2022/03/04 07:49:43;;;;;;;92.50;34.90;;;-2.00;99.90;;;;;;5040414;28;20160;-75
2022/03/04 07:52:10;;;;;;;85.15;32.60;;;-2.10;99.90;;;;;;5039960;28;20049;-75
2022/03/04 07:54:37;;;;;;;88.68;32.28;;;-2.00;99.90;;;;;;5015947;28;20041;-75
2022/03/04 07:57:04;;;;;;;88.45;31.63;;;-2.10;99.90;;;;;;5020065;28;20088;-75
2022/03/04 07:59:31;;;;;;;86.05;37.38;;;-2.10;99.90;;;;;;5021840;28;20041;-75
2022/03/04 08:01:58;;;;;;;90.70;33.45;;;-1.90;99.90;;;;;;5021671;28;20528;-75
2022/03/04 08:04:25;;;;;;;92.82;34.03;;;-1.70;99.90;;;;;;5020528;28;20456;-75
2022/03/04 08:06:52;;;;;;;81.95;33.28;;;-1.50;99.90;;;;;;5009654;28;20087;-75
2022/03/04 08:09:19;;;;;;;84.93;33.72;;;-1.40;99.90;;;;;;5016754;28;20080;-76
2022/03/04 08:11:47;;;;;;;81.30;33.20;;;-1.40;99.90;;;;;;5017828;28;20076;-76
2022/03/04 08:14:13;;;;;;;83.47;34.67;;;-1.30;99.90;;;;;;5018912;28;20041;-76
2022/03/04 08:16:40;;;;;;;75.63;33.92;;;-1.30;99.90;;;;;;5017683;28;20104;-76
2022/03/04 08:19:07;;;;;;;85.07;34.78;;;-1.50;99.90;;;;;;5019508;28;20132;-76
2022/03/04 08:21:33;;;;;;;78.10;33.60;;;-1.50;99.90;;;;;;5000959;28;20076;-75
2022/03/04 08:24:00;;;;;;;81.93;32.25;;;-1.50;99.90;;;;;;5019592;28;20037;-76
2022/03/04 08:26:27;;;;;;;79.28;33.97;;;-1.50;99.90;;;;;;5018383;28;20452;-76
2022/03/04 08:29:00;;;;;;;73.03;32.65;;;-1.50;99.90;;;;;;5020829;28;20055;-76
2022/03/04 08:31:27;;;;;;;85.85;32.60;;;-1.60;99.90;;;;;;5020437;28;20040;-75
2022/03/04 08:33:54;;;;;;;78.35;31.45;;;-1.60;99.90;;;;;;5001644;28;20323;-76
2022/03/04 08:36:21;;;;;;;79.15;30.35;;;-1.60;99.90;;;;;;5019411;28;20265;-76
2022/03/04 08:38:48;;;;;;;70.05;29.15;;;-1.60;99.90;;;;;;5014885;28;20471;-75
2022/03/04 08:41:15;;;;;;;62.25;26.70;;;-1.50;99.90;;;;;;5036338;28;20512;-75
2022/03/04 08:43:42;;;;;;;67.68;27.92;;;-1.50;99.90;;;;;;5039598;28;20316;-75
2022/03/04 08:46:12;;;;;;;77.05;31.50;;;-1.50;99.90;;;;;;5016630;28;20038;-75
2022/03/04 08:48:42;;;;;;;68.65;30.85;;;-1.30;99.90;;;;;;5001677;28;20041;-76
2022/03/04 08:51:09;;;;;;;65.57;30.45;;;-1.20;99.90;;;;;;5017180;28;20131;-76
2022/03/04 08:53:36;;;;;;;70.57;29.15;;;-1.20;99.90;;;;;;5001615;28;20076;-76
2022/03/04 08:56:04;;;;;;;66.65;26.88;;;-1.20;99.90;;;;;;5019157;28;20045;-76
2022/03/04 08:58:30;;;;;;;71.47;31.35;;;-1.10;99.90;;;;;;5008064;28;20053;-76
2022/03/04 09:00:58;;;;;;;68.57;30.88;;;-1.10;99.90;;;;;;4990633;28;20175;-76
2022/03/04 09:03:25;;;;;;;57.85;27.02;;;-1.10;99.90;;;;;;5016750;28;20099;-76
2022/03/04 09:05:52;;;;;;;64.72;30.25;;;-1.10;99.90;;;;;;5018963;28;20045;-74
2022/03/04 09:08:19;;;;;;;63.30;28.00;;;-1.10;99.90;;;;;;4987514;28;20053;-74
2022/03/04 09:10:46;;;;;;;60.75;28.52;;;-1.00;99.90;;;;;;4998334;28;20131;-74
2022/03/04 09:13:16;;;;;;;49.55;25.13;;;-1.00;99.90;;;;;;5017598;28;20068;-74
2022/03/04 09:15:43;;;;;;;61.38;28.50;;;-1.00;99.90;;;;;;5017361;28;20045;-75
2022/03/04 09:18:09;;;;;;;60.05;29.10;;;-0.90;99.90;;;;;;5000829;28;20140;-74
2022/03/04 09:20:36;;;;;;;53.15;28.85;;;-0.60;99.90;;;;;;5017106;28;20049;-75
2022/03/04 09:23:03;;;;;;;57.47;29.60;;;-0.40;99.90;;;;;;5017492;28;20042;-74
2022/03/04 09:25:30;;;;;;;51.80;29.63;;;-0.20;99.90;;;;;;5005667;28;20069;-75
2022/03/04 09:27:57;;;;;;;47.65;29.45;;;0.00;99.90;;;;;;5018118;28;20215;-74
2022/03/04 09:30:24;;;;;;;44.33;30.17;;;-0.10;99.90;;;;;;5000884;28;20477;-75
2022/03/04 09:32:51;;;;;;;43.67;30.55;;;-0.10;99.90;;;;;;5018646;28;20116;-74
2022/03/04 09:35:18;;;;;;;52.20;34.63;;;-0.10;99.90;;;;;;5000458;28;20441;-74
2022/03/04 09:37:48;;;;;;;53.20;34.72;;;0.10;99.90;;;;;;5018679;28;20141;-74
2022/03/04 09:40:15;;;;;;;50.88;35.42;;;0.30;99.90;;;;;;5014974;28;20077;-74
2022/03/04 09:42:41;;;;;;;44.03;35.85;;;0.70;99.90;;;;;;5000324;28;20388;-74
2022/03/04 09:45:09;;;;;;;43.72;35.30;;;0.90;99.90;;;;;;5022882;28;20299;-75
2022/03/04 09:47:36;;;;;;;51.35;36.17;;;0.80;99.90;;;;;;5026309;28;20344;-75
2022/03/04 09:50:04;;;;;;;57.20;36.13;;;1.10;99.90;;;;;;5047199;28;20536;-76
2022/03/04 09:52:32;;;;;;;50.88;35.45;;;1.20;99.90;;;;;;5035052;28;20045;-74
2022/03/04 09:55:00;;;;;;;47.33;35.70;;;1.30;99.90;;;;;;5006692;28;20053;-75
2022/03/04 09:57:27;;;;;;;46.22;32.95;;;1.40;99.90;;;;;;5022038;28;20440;-75
2022/03/04 09:59:53;;;;;;;48.67;38.00;;;1.40;99.90;;;;;;5022617;28;20056;-75
2022/03/04 10:02:20;;;;;;;51.60;39.55;;;1.50;99.90;;;;;;5007204;28;20096;-75
2022/03/04 10:04:56;;;;;;;45.88;37.60;;;1.70;99.90;;;;;;5022921;28;20049;-75
2022/03/04 10:07:23;;;;;;;46.00;35.95;;;1.90;99.90;;;;;;5005615;28;20111;-73
2022/03/04 10:09:50;;;;;;;48.38;38.17;;;1.90;99.90;;;;;;5005661;28;20111;-72
2022/03/04 10:12:20;;;;;;;51.53;37.65;;;1.90;99.90;;;;;;4996546;28;20396;-73
2022/03/04 10:15:07;;;;;;;42.25;36.95;;;2.00;99.90;;;;;;5024582;28;20458;-74
2022/03/04 10:17:36;;;;;;;41.83;37.33;;;2.40;99.90;;;;;;5003371;28;20049;-74
2022/03/04 10:20:12;;;;;;;44.75;38.78;;;1.90;99.90;;;;;;5029535;28;20360;-74
2022/03/04 10:22:42;;;;;;;44.63;38.05;;;2.00;99.90;;;;;;5043089;28;20068;-78
2022/03/04 10:25:24;;;;;;;45.45;37.92;;;2.10;99.90;;;;;;5045605;28;20073;-77
2022/03/04 10:27:52;;;;;;;43.78;37.15;;;2.00;99.90;;;;;;5024949;28;20041;-75
2022/03/04 10:30:31;;;;;;;45.15;37.92;;;2.20;99.90;;;;;;5037738;28;20521;-77
2022/03/04 10:33:14;;;;;;;42.17;36.88;;;2.30;99.90;;;;;;5026540;28;20065;-75
2022/03/04 10:35:43;;;;;;;45.47;36.50;;;2.60;99.90;;;;;;5005403;28;20049;-74
2022/03/04 10:38:24;;;;;;;46.20;39.03;;;2.70;99.90;;;;;;5003707;28;20045;-75
2022/03/04 10:40:51;;;;;;;42.30;37.72;;;2.90;99.90;;;;;;5027338;28;20399;-74
2022/03/04 10:43:23;;;;;;;42.97;38.28;;;3.20;99.90;;;;;;5025060;28;20084;-75
2022/03/04 10:46:07;;;;;;;49.47;39.40;;;3.00;99.90;;;;;;5024355;28;20503;-76
2022/03/04 10:48:35;;;;;;;46.83;37.85;;;2.90;99.90;;;;;;5037286;28;20140;-74
2022/03/04 10:51:04;;;;;;;43.95;37.28;;;2.80;99.90;;;;;;5007616;28;20121;-75
2022/03/04 10:53:33;;;;;;;37.35;33.35;;;2.60;99.90;;;;;;5014762;28;20142;-74
2022/03/04 10:56:07;;;;;;;41.22;36.72;;;2.60;99.90;;;;;;5025320;28;20040;-75
2022/03/04 10:58:40;;;;;;;41.97;34.63;;;2.80;99.90;;;;;;5034124;28;20242;-75
2022/03/04 11:01:12;;;;;;;42.80;36.58;;;3.00;99.90;;;;;;5021021;28;20253;-76
2022/03/04 11:03:41;;;;;;;41.08;36.13;;;3.20;99.90;;;;;;5021601;28;20088;-75
2022/03/04 11:06:11;;;;;;;40.58;34.05;;;3.50;99.90;;;;;;5004113;28;20136;-76
2022/03/04 11:08:38;;;;;;;43.05;35.00;;;3.70;99.90;;;;;;5004421;28;20057;-77
2022/03/04 11:11:10;;;;;;;37.72;33.53;;;3.40;99.90;;;;;;5022008;28;20073;-75
2022/03/04 11:13:37;;;;;;;38.00;33.85;;;3.50;99.90;;;;;;5006139;28;20111;-77
2022/03/04 11:16:06;;;;;;;41.63;37.17;;;3.10;99.90;;;;;;5005233;28;20156;-77
2022/03/04 11:18:34;;;;;;;43.63;38.88;;;3.10;99.90;;;;;;5023060;28;20144;-77
2022/03/04 11:21:01;;;;;;;43.63;39.15;;;2.80;99.90;;;;;;5021421;28;20037;-77
2022/03/04 11:23:37;;;;;;;43.75;39.35;;;3.00;99.90;;;;;;5002772;28;20057;-76
2022/03/04 11:26:07;;;;;;;41.42;37.40;;;3.00;99.90;;;;;;5003487;28;20057;-76
2022/03/04 11:28:38;;;;;;;45.63;41.03;;;2.90;99.90;;;;;;5022230;28;20045;-76
2022/03/04 11:31:07;;;;;;;44.15;39.55;;;3.20;99.90;;;;;;5020473;28;20526;-74
2022/03/04 11:33:55;;;;;;;43.05;39.08;;;3.20;99.90;;;;;;5020865;28;20549;-76
2022/03/04 11:36:27;;;;;;;42.10;37.75;;;3.30;99.90;;;;;;5003074;28;20476;-77
2022/03/04 11:39:05;;;;;;;43.75;39.15;;;3.40;99.90;;;;;;5021768;28;20049;-76
2022/03/04 11:41:53;;;;;;;44.85;40.28;;;3.50;99.90;;;;;;5003416;28;20057;-76
2022/03/04 11:44:22;;;;;;;41.30;36.65;;;3.40;99.90;;;;;;5014939;28;20053;-77
2022/03/04 11:47:01;;;;;;;43.60;39.25;;;3.70;99.90;;;;;;5021210;28;20574;-76
2022/03/04 11:49:46;;;;;;;41.10;37.03;;;3.80;99.90;;;;;;5010164;28;20072;-75
2022/03/04 11:52:26;;;;;;;44.37;39.80;;;3.60;99.90;;;;;;5022393;28;20309;-75
2022/03/04 11:55:00;;;;;;;42.30;38.28;;;3.70;99.90;;;;;;5017997;28;20288;-76
2022/03/04 11:57:28;;;;;;;43.40;39.25;;;3.50;99.90;;;;;;5003301;28;20053;-75
2022/03/04 12:00:22;;;;;;;43.35;38.85;;;3.70;99.90;;;;;;5008613;28;20041;-75
2022/03/04 12:02:51;;;;;;;42.50;38.03;;;3.60;99.90;;;;;;5021761;28;20493;-75
2022/03/04 12:05:19;;;;;;;42.65;38.25;;;3.70;99.90;;;;;;5003187;28;20778;-76
2022/03/04 12:07:56;;;;;;;42.97;37.45;;;3.90;99.90;;;;;;5022162;28;20128;-75
2022/03/04 12:10:42;;;;;;;42.97;38.53;;;4.30;99.90;;;;;;4984535;28;20046;-74
2022/03/04 12:13:18;;;;;;;44.67;40.22;;;4.50;99.90;;;;;;5001049;28;20540;-75
2022/03/04 12:15:50;;;;;;;43.10;38.85;;;3.70;99.90;;;;;;5001111;28;20050;-75
2022/03/04 12:18:25;;;;;;;43.78;39.40;;;3.80;99.90;;;;;;5008982;28;20065;-74
2022/03/04 12:20:55;;;;;;;;;;;3.80;99.90;;;;;;5019321;28;20511;-75
2022/03/04 12:23:30;;;;;;;37.22;33.80;;;3.70;99.90;;;;;;5016544;28;19994;-74
2022/03/04 12:25:58;;;;;;;38.95;34.90;;;3.90;99.90;;;;;;5007257;28;20098;-74
2022/03/04 12:28:45;;;;;;;39.85;35.92;;;3.90;99.90;;;;;;5021742;28;20053;-75
2022/03/04 12:31:12;;;;;;;39.63;35.97;;;3.80;99.90;;;;;;5000993;28;20087;-75
2022/03/04 12:33:41;;;;;;;41.10;36.90;;;3.90;99.90;;;;;;5019358;28;20143;-75
2022/03/04 12:36:17;;;;;;;37.90;34.40;;;4.00;99.90;;;;;;5020105;28;20468;-75